Latest Weather Observations for Cape Grim

IDT60801

Issued at 5:32 am EDT Friday 24 November 2017 (issued every 30 minutes, with the page automatically refreshed every 10 minutes)

About weather observations | Map of weather stations | Latest weather observations for TAS | Other Formats
Station Details ID: 091331 Name: CAPE GRIM Lat: -40.68 Lon: 144.69 Height: 86.0 m
Data from the previous 72 hours. | See also: Recent months at Cape Grim
Date/Time
EDT
Temp
°C
App
Temp
°C
Dew
Point
°C
Rel
Hum
%
Delta-T
°C
Wind Press
QNH
hPa
Press
MSL
hPa
Rain since
9am
mm
Dir  Spd
km/h
Gust
km/h
Spd
kts
Gust
kts
24/05:30am 16.3 11.8 16.3 100 0.0 E 35 43 19 23 1010.9 1010.9 0.2
24/05:00am 16.5 12.0 16.5 100 0.0 E 35 41 19 22 1010.8 1010.8 0.2
24/04:30am 16.4 11.1 16.4 100 0.0 E 39 46 21 25 1010.5 1010.5 0.2
24/04:00am 16.2 11.2 16.2 100 0.0 ESE 37 46 20 25 1010.5 1010.5 0.2
24/03:59am 16.1 11.1 16.1 100 0.0 ESE 37 44 20 24 1010.5 1010.5 0.2
24/03:30am 16.3 14.2 16.3 100 0.0 E 22 26 12 14 1011.7 1011.7 0.2
24/03:00am 16.5 14.9 16.5 100 0.0 ENE 20 24 11 13 1012.0 1012.0 0.2
24/02:30am 16.6 14.7 16.6 100 0.0 E 22 28 12 15 1011.9 1011.9 0.2
24/02:00am 16.7 15.2 16.7 100 0.0 ENE 20 26 11 14 1011.8 1011.8 0.2
24/01:30am 16.7 15.4 16.7 100 0.0 ENE 19 24 10 13 1012.3 1012.3 0.2
24/01:00am 16.4 14.8 16.4 100 0.0 ENE 20 24 11 13 1012.2 1012.2 0.2
24/12:47am 16.3 14.6 16.3 100 0.0 E 20 26 11 14 1012.2 1012.2 0.2
24/12:30am 16.6 15.0 16.6 100 0.0 ENE 20 28 11 15 1012.2 1012.2 0.2
24/12:00am 16.6 12.8 16.6 100 0.0 E 32 39 17 21 1011.8 1011.8 0.2
 
Date/Time
EDT
Temp
°C
App
Temp
°C
Dew
Point
°C
Rel
Hum
%
Delta-T
°C
Wind Press
QNH
hPa
Press
MSL
hPa
Rain since
9am
mm
Dir  Spd
km/h
Gust
km/h
Spd
kts
Gust
kts
23/11:30pm 16.7 11.9 16.5 99 0.1 E 37 44 20 24 1011.4 1011.4 0.2
23/11:00pm 16.8 12.0 16.6 99 0.1 ENE 37 44 20 24 1011.5 1011.5 0.2
23/10:30pm 16.9 11.8 16.7 99 0.1 E 39 46 21 25 1011.6 1011.6 0.2
23/10:00pm 16.9 11.7 16.6 98 0.2 E 39 46 21 25 1011.2 1011.2 0.2
23/09:30pm 16.9 11.6 16.4 97 0.3 E 39 46 21 25 1010.8 1010.8 0.2
23/09:00pm 17.0 11.7 16.4 96 0.4 E 39 46 21 25 1010.8 1010.8 0.2
23/08:30pm 17.2 11.9 16.2 94 0.6 E 39 44 21 24 1010.7 1010.7 0.2
23/08:00pm 17.5 12.6 15.3 87 1.3 E 35 43 19 23 1010.7 1010.7 0.2
23/07:30pm 18.3 13.3 15.0 81 1.9 E 35 43 19 23 1010.6 1010.6 0.2
23/07:00pm 18.9 13.9 15.0 78 2.3 E 35 44 19 24 1010.4 1010.4 0.2
23/06:30pm 19.3 13.5 15.0 76 2.5 E 39 46 21 25 1010.3 1010.3 0.2
23/06:00pm 19.6 13.4 15.0 75 2.7 ENE 41 50 22 27 1010.2 1010.2 0.2
23/05:30pm 20.0 13.3 15.2 74 2.8 ENE 44 52 24 28 1010.4 1010.4 0.2
23/05:00pm 20.4 13.8 15.4 73 3.0 ENE 44 54 24 29 1010.6 1010.6 0.2
23/04:30pm 20.4 13.3 15.0 71 3.2 ENE 46 56 25 30 1010.8 1010.8 0.2
23/04:00pm 21.0 14.0 16.2 74 2.9 ENE 48 59 26 32 1010.9 1010.9 0.2
23/03:30pm 20.9 13.3 15.7 72 3.1 E 50 59 27 32 1011.1 1011.1 0.2
23/03:00pm 21.0 13.3 15.5 71 3.3 E 50 59 27 32 1011.3 1011.3 0.2
23/02:30pm 20.8 12.6 15.1 70 3.4 ENE 52 65 28 35 1011.4 1011.4 0.2
23/02:00pm 20.7 12.2 15.3 71 3.2 E 54 65 29 35 1011.8 1011.8 0.2
23/01:30pm 20.9 13.6 15.4 71 3.3 ENE 48 63 26 34 1012.3 1012.3 0.2
23/01:00pm 20.6 11.7 15.4 72 3.1 ENE 56 67 30 36 1012.1 1012.1 0.2
23/12:30pm 20.9 12.6 15.0 69 3.5 ENE 52 69 28 37 1012.2 1012.2 0.2
23/12:00pm 20.7 11.8 15.3 71 3.2 ENE 56 67 30 36 1012.2 1012.2 0.0
23/11:30am 20.2 11.7 15.4 74 2.9 E 54 67 29 36 1012.6 1012.6 0.0
23/11:00am 19.9 11.3 15.1 74 2.8 E 54 63 29 34 1012.8 1012.8 0.0
23/10:30am 19.2 10.2 14.9 76 2.5 E 56 69 30 37 1012.6 1012.6 0.0
23/10:00am 18.8 10.7 15.3 80 2.1 E 52 65 28 35 1012.8 1012.8 0.0
23/09:30am 18.0 9.8 15.1 83 1.7 ENE 52 67 28 36 1013.1 1013.1 0.0
23/09:00am 17.7 10.1 14.8 83 1.7 ENE 48 59 26 32 1013.1 1013.1 0.0
23/08:30am 17.7 10.4 14.6 82 1.8 E 46 61 25 33 1013.0 1013.0 0.0
23/08:00am 17.4 9.4 14.7 84 1.6 E 50 63 27 34 1012.8 1012.8 0.0
23/07:30am 16.8 9.2 14.8 88 1.2 E 48 63 26 34 1012.9 1012.9 0.0
23/07:00am 16.3 9.3 15.3 94 0.6 E 46 57 25 31 1012.9 1012.9 0.0
23/06:30am 15.8 8.0 15.2 96 0.3 E 50 61 27 33 1012.8 1012.8 0.0
23/06:00am 15.7 7.9 15.1 96 0.3 E 50 61 27 33 1012.7 1012.7 0.0
23/05:30am 15.6 7.7 15.0 96 0.3 E 50 59 27 32 1012.9 1012.9 0.0
23/05:00am 15.7 7.9 15.1 96 0.3 E 50 61 27 33 1013.0 1013.0 0.0
23/04:30am 15.6 8.5 15.1 97 0.3 E 46 56 25 30 1013.3 1013.3 0.0
23/04:00am 15.7 8.6 15.1 96 0.3 E 46 56 25 30 1013.4 1013.4 0.0
23/03:30am 15.8 8.4 15.2 96 0.3 E 48 59 26 32 1013.6 1013.6 0.0
23/03:00am 15.8 8.3 15.0 95 0.5 ENE 48 57 26 31 1014.0 1014.0 0.0
23/02:30am 15.8 9.1 15.2 96 0.3 E 44 54 24 29 1014.5 1014.5 0.0
23/02:00am 16.0 10.7 15.4 96 0.3 ENE 37 46 20 25 1015.3 1015.3 0.0
23/01:30am 15.9 9.4 15.1 95 0.5 ENE 43 54 23 29 1015.3 1015.3 0.0
23/01:00am 16.0 10.0 15.4 96 0.3 ENE 41 56 22 30 1015.5 1015.5 0.0
23/12:30am 15.8 10.0 15.0 95 0.5 ENE 39 48 21 26 1015.8 1015.8 0.0
23/12:00am 15.8 9.3 15.0 95 0.5 E 43 52 23 28 1015.8 1015.8 0.0
 
Date/Time
EDT
Temp
°C
App
Temp
°C
Dew
Point
°C
Rel
Hum
%
Delta-T
°C
Wind Press
QNH
hPa
Press
MSL
hPa
Rain since
9am
mm
Dir  Spd
km/h
Gust
km/h
Spd
kts
Gust
kts
22/11:30pm 15.6 9.7 14.6 94 0.6 E 39 50 21 27 1015.9 1015.9 0.0
22/11:00pm 15.9 9.7 14.8 93 0.6 E 41 48 22 26 1016.1 1016.1 0.0
22/10:30pm 16.0 9.0 14.2 89 1.0 E 44 54 24 29 1016.0 1016.0 0.0
22/10:00pm 16.1 8.6 13.9 87 1.2 E 46 56 25 30 1016.1 1016.1 0.0
22/09:30pm 16.1 9.1 13.8 86 1.3 E 43 52 23 28 1016.3 1016.3 0.0
22/09:00pm 16.3 9.1 13.6 84 1.5 ENE 44 52 24 28 1016.2 1016.2 0.0
22/08:30pm 16.5 8.9 13.6 83 1.6 ENE 46 54 25 29 1016.2 1016.2 0.0
22/08:00pm 16.8 9.2 13.5 81 1.9 ENE 46 57 25 31 1016.0 1016.0 0.0
22/07:30pm 17.1 9.7 13.2 78 2.2 ENE 44 54 24 29 1016.1 1016.1 0.0
22/07:00pm 17.6 9.5 13.3 76 2.4 ENE 48 59 26 32 1015.9 1015.9 0.0
22/06:30pm 17.9 9.9 13.6 76 2.4 ENE 48 57 26 31 1015.8 1015.8 0.0
22/06:00pm 18.3 10.8 13.8 75 2.6 ENE 46 59 25 32 1015.9 1015.9 0.0
22/05:30pm 18.4 10.1 13.7 74 2.7 ENE 50 59 27 32 1016.0 1016.0 0.0
22/05:00pm 19.0 10.8 14.1 73 2.8 E 50 61 27 33 1016.1 1016.1 0.0
22/04:30pm 19.0 10.3 13.6 71 3.1 ENE 52 65 28 35 1016.3 1016.3 0.0
22/04:00pm 19.2 10.5 13.6 70 3.2 ENE 52 67 28 36 1016.5 1016.5 0.0
22/03:30pm 19.3 10.7 14.1 72 3.0 ENE 52 67 28 36 1016.7 1016.7 0.0
22/03:00pm 19.5 10.6 14.3 72 3.0 ENE 54 65 29 35 1017.1 1017.1 0.0
22/02:38pm 19.9 11.0 14.3 70 3.3 ENE 54 72 29 39 1017.1 1017.1 0.0
22/02:30pm 19.8 11.0 14.6 72 3.0 ENE 54 69 29 37 1017.3 1017.3 0.0
22/02:03pm 19.6 10.1 13.5 68 3.5 ENE 56 74 30 40 1017.4 1017.4 0.0
22/02:00pm 20.2 11.6 15.2 73 3.0 ENE 54 69 29 37 1017.5 1017.5 0.0
22/01:30pm 19.5 10.0 14.3 72 3.0 E 57 70 31 38 1017.6 1017.6 0.0
22/01:00pm 19.7 10.4 14.7 73 2.9 ENE 57 67 31 36 1018.1 1018.0 0.0
22/12:30pm 19.6 10.4 14.4 72 3.0 E 56 70 30 38 1018.2 1018.1 0.0
22/12:00pm 19.2 9.3 14.0 72 3.0 ENE 59 74 32 40 1018.3 1018.2 0.0
22/11:30am 19.2 9.3 14.2 73 2.9 ENE 59 72 32 39 1018.5 1018.4 0.0
22/11:00am 18.9 9.6 14.2 74 2.7 ENE 56 70 30 38 1018.5 1018.4 0.0
22/10:30am 18.5 8.9 14.0 75 2.6 ENE 57 72 31 39 1018.5 1018.4 0.0
22/10:00am 18.3 8.8 14.2 77 2.4 ENE 57 74 31 40 1018.6 1018.6 0.0
22/09:37am 18.1 8.8 14.2 78 2.2 ENE 56 70 30 38 1018.8 1018.8 0.0
22/09:30am 17.6 8.1 13.7 78 2.2 ENE 56 67 30 36 1018.9 1018.9 0.0
22/09:05am 17.5 8.6 14.2 81 1.9 ENE 54 72 29 39 1018.9 1018.9 0.0
22/09:00am 17.5 8.7 14.4 82 1.8 ENE 54 65 29 35 1019.1 1019.1 0.0
22/08:30am 16.8 7.8 14.1 84 1.5 ENE 54 72 29 39 1018.9 1018.9 0.0
22/08:29am 16.9 8.1 14.4 85 1.4 ENE 54 72 29 39 1018.9 1018.9 0.0
22/08:00am 16.6 7.6 13.9 84 1.5 ENE 54 69 29 37 1018.8 1018.8 0.0
22/07:30am 16.3 7.0 14.1 87 1.3 E 56 70 30 38 1018.7 1018.7 0.0
22/07:00am 16.0 6.3 14.7 92 0.7 ENE 59 72 32 39 1018.3 1018.2 0.0
22/06:30am 15.9 6.7 14.9 94 0.6 ENE 57 72 31 39 1018.3 1018.2 0.0
22/06:00am 15.8 7.1 14.8 94 0.6 ENE 54 65 29 35 1018.3 1018.2 0.0
22/05:30am 15.6 7.7 14.8 95 0.5 ENE 50 61 27 33 1018.2 1018.1 0.0
22/05:00am 15.8 7.5 15.0 95 0.5 E 52 63 28 34 1018.1 1018.0 0.0
22/04:30am 15.8 7.2 15.0 95 0.5 ENE 54 65 29 35 1018.0 1017.9 0.0
22/04:00am 15.9 8.1 15.1 95 0.5 ENE 50 63 27 34 1018.3 1018.2 0.0
22/03:30am 15.7 7.1 15.1 96 0.3 E 54 65 29 35 1018.3 1018.2 0.0
22/03:00am 15.7 6.7 15.1 96 0.3 E 56 67 30 36 1018.2 1018.1 0.0
22/02:52am 15.7 6.7 15.1 96 0.3 E 56 70 30 38 1018.2 1018.1 0.0
22/02:30am 15.6 7.0 15.0 96 0.3 E 54 67 29 36 1018.3 1018.2 0.0
22/02:00am 15.7 6.7 15.1 96 0.3 E 56 69 30 37 1018.4 1018.3 0.0
22/01:30am 15.8 8.0 15.2 96 0.3 E 50 63 27 34 1018.6 1018.6 0.0
22/01:00am 15.8 6.8 15.0 95 0.5 E 56 67 30 36 1018.6 1018.6 0.0
22/12:30am 15.8 7.9 15.0 95 0.5 E 50 63 27 34 1018.8 1018.8 0.0
22/12:00am 15.8 7.9 15.0 95 0.5 E 50 63 27 34 1019.2 1019.2 0.0
 
Date/Time
EDT
Temp
°C
App
Temp
°C
Dew
Point
°C
Rel
Hum
%
Delta-T
°C
Wind Press
QNH
hPa
Press
MSL
hPa
Rain since
9am
mm
Dir  Spd
km/h
Gust
km/h
Spd
kts
Gust
kts
21/11:30pm 15.8 7.5 15.0 95 0.5 E 52 61 28 33 1019.4 1019.4 0.0
21/11:00pm 15.9 8.0 14.9 94 0.6 E 50 63 27 34 1019.6 1019.6 0.0
21/10:30pm 16.0 7.2 14.5 91 0.9 E 54 63 29 34 1019.7 1019.7 0.0
21/10:00pm 16.1 7.5 14.1 88 1.1 E 52 63 28 34 1019.8 1019.8 0.0
21/09:30pm 16.3 7.3 14.0 86 1.3 E 54 63 29 34 1019.8 1019.8 0.0
21/09:00pm 16.3 8.8 14.0 86 1.3 E 46 59 25 32 1019.9 1019.9 0.0
21/08:30pm 16.3 9.2 14.0 86 1.3 E 44 57 24 31 1020.0 1020.0 0.0
21/08:00pm 16.6 7.6 13.9 84 1.5 E 54 61 29 33 1019.7 1019.7 0.0
21/07:30pm 17.1 8.4 13.8 81 1.9 E 52 63 28 34 1019.5 1019.5 0.0
21/07:00pm 17.5 8.1 13.8 79 2.1 E 56 65 30 35 1019.3 1019.3 0.0
21/06:30pm 17.9 9.7 14.0 78 2.2 E 50 61 27 33 1019.6 1019.6 0.0
21/06:00pm 18.2 9.6 14.1 77 2.4 E 52 61 28 33 1019.7 1019.7 0.0
21/05:30pm 18.5 10.0 14.4 77 2.4 E 52 65 28 35 1019.8 1019.8 0.0
21/05:00pm 18.6 9.6 14.1 75 2.6 E 54 65 29 35 1020.0 1020.0 0.0
21/04:30pm 18.9 9.6 14.2 74 2.7 E 56 67 30 36 1020.1 1020.1 0.0
21/04:00pm 19.3 10.3 15.0 76 2.5 E 56 63 30 34 1020.1 1020.1 0.0
21/03:30pm 19.3 10.0 14.6 74 2.7 E 57 67 31 36 1020.4 1020.4 0.0
21/03:00pm 19.4 10.1 14.6 74 2.8 E 57 67 31 36 1020.7 1020.7 0.0
21/02:30pm 19.6 10.3 14.8 74 2.8 E 57 69 31 37 1021.0 1021.0 0.0
21/02:00pm 19.5 10.3 14.5 73 2.9 E 56 65 30 35 1021.2 1021.2 0.0
21/01:36pm 19.8 10.7 15.2 75 2.7 E 57 69 31 37 1021.4 1021.4 0.0
21/01:30pm 19.7 10.5 15.1 75 2.7 E 57 69 31 37 1021.4 1021.4 0.0
21/01:00pm 19.4 10.0 14.4 73 2.9 ENE 57 70 31 38 1021.7 1021.7 0.0
21/12:45pm 19.8 10.6 15.0 74 2.8 ENE 57 69 31 37 1021.8 1021.8 0.0
21/12:30pm 19.4 10.0 14.4 73 2.9 ENE 57 69 31 37 1021.8 1021.8 0.0
21/12:00pm 19.3 10.1 15.0 76 2.5 E 57 70 31 38 1022.1 1022.1 0.0
21/11:30am 19.2 10.2 15.1 77 2.4 E 56 69 30 37 1022.3 1022.3 0.0
21/11:00am 19.0 10.0 14.9 77 2.4 ENE 56 65 30 35 1022.4 1022.4 0.0
21/10:30am 18.4 9.2 14.5 78 2.3 E 56 67 30 36 1022.4 1022.4 0.0
21/10:00am 17.9 9.1 14.4 80 2.0 E 54 65 29 35 1022.4 1022.4 0.0
21/09:30am 18.4 9.8 15.1 81 1.9 E 54 67 29 36 1022.4 1022.4 0.0
21/09:00am 17.7 9.8 14.8 83 1.7 E 50 63 27 34 1022.3 1022.3 0.2
21/08:37am 17.2 9.2 14.7 85 1.4 ENE 50 63 27 34 1022.4 1022.4 0.2
21/08:30am 16.9 8.7 14.2 84 1.5 E 50 61 27 33 1022.3 1022.3 0.2
21/08:00am 16.4 8.4 14.6 89 1.0 E 50 59 27 32 1022.1 1022.1 0.2
21/07:30am 16.1 8.2 15.0 93 0.6 ENE 50 61 27 33 1022.0 1022.0 0.2
21/07:00am 15.9 8.0 14.9 94 0.6 E 50 61 27 33 1021.7 1021.7 0.2
21/06:30am 15.7 8.7 15.2 97 0.3 E 46 57 25 31 1021.5 1021.5 0.2
21/06:00am 15.6 8.2 15.3 98 0.2 E 48 59 26 32 1021.2 1021.2 0.2

Other Formats:

Comma delimited format used in spreadsheet applications
http://www.bom.gov.au/fwo/IDT60801/IDT60801.95954.axf

JavaScript Object Notation format (JSON) in row-major order
http://www.bom.gov.au/fwo/IDT60801/IDT60801.95954.json